< < Back
Terminal Aerodrome Forecast


Current Version              Previous Versions:   1  2  3  4  5  6  7  8  9  

Terminal Aerodrome Forecast

089
FTUS42 KCAE 230200 AAA
TAFAGS
TAF AMD
KAGS 230256Z 2303/2324 08005KT P6SM VCSH BKN060
     FM230700 06005KT P6SM VCSH SCT008 OVC025
     FM230900 07008KT 4SM -RA BR OVC008
     FM231300 08012KT 2SM RA BR OVC004=



Latest METAR

354
SAUS70 KWBC 230558
MTRAGS
METAR KAGS 230553Z AUTO 26003KT 10SM OVC075 10/08 A3024 RMK AO2 SLP241
60001 T01000083 10122 20089 58014


USA.gov is the U.S. government's official web portal to all federal, state and local government web resources and services.